sensor_id;sensor_type;location;lat;lon;timestamp;temperature;humidity
3548;DHT22;1788;49.400;11.092;2023-04-08T00:01:07;9.10;48.40
3548;DHT22;1788;49.400;11.092;2023-04-08T00:03:34;9.10;48.40
3548;DHT22;1788;49.400;11.092;2023-04-08T00:06:00;9.10;48.50
3548;DHT22;1788;49.400;11.092;2023-04-08T00:08:27;9.00;48.40
3548;DHT22;1788;49.400;11.092;2023-04-08T00:10:54;9.00;48.50
3548;DHT22;1788;49.400;11.092;2023-04-08T00:13:20;9.00;48.50
3548;DHT22;1788;49.400;11.092;2023-04-08T00:15:47;9.00;48.60
3548;DHT22;1788;49.400;11.092;2023-04-08T00:18:15;9.00;48.70
3548;DHT22;1788;49.400;11.092;2023-04-08T00:20:41;8.90;48.70
3548;DHT22;1788;49.400;11.092;2023-04-08T00:23:08;8.90;48.60
3548;DHT22;1788;49.400;11.092;2023-04-08T00:25:35;8.90;48.70
3548;DHT22;1788;49.400;11.092;2023-04-08T00:28:01;9.00;48.80
3548;DHT22;1788;49.400;11.092;2023-04-08T00:30:28;8.90;48.80
3548;DHT22;1788;49.400;11.092;2023-04-08T00:32:55;8.90;48.90
3548;DHT22;1788;49.400;11.092;2023-04-08T00:35:21;8.90;48.90
3548;DHT22;1788;49.400;11.092;2023-04-08T00:37:48;8.90;49.00
3548;DHT22;1788;49.400;11.092;2023-04-08T00:40:14;8.90;49.00
3548;DHT22;1788;49.400;11.092;2023-04-08T00:42:41;8.90;49.10
3548;DHT22;1788;49.400;11.092;2023-04-08T00:45:08;8.90;49.10
3548;DHT22;1788;49.400;11.092;2023-04-08T00:47:35;8.90;49.30
3548;DHT22;1788;49.400;11.092;2023-04-08T00:50:02;8.90;49.20
3548;DHT22;1788;49.400;11.092;2023-04-08T00:52:28;8.90;49.20
3548;DHT22;1788;49.400;11.092;2023-04-08T00:54:55;8.90;49.30
3548;DHT22;1788;49.400;11.092;2023-04-08T00:57:21;8.90;49.30
3548;DHT22;1788;49.400;11.092;2023-04-08T00:59:48;8.90;49.40
3548;DHT22;1788;49.400;11.092;2023-04-08T01:07:12;8.90;49.50
3548;DHT22;1788;49.400;11.092;2023-04-08T01:09:36;8.90;49.50
3548;DHT22;1788;49.400;11.092;2023-04-08T01:12:03;8.90;49.70
3548;DHT22;1788;49.400;11.092;2023-04-08T01:14:29;8.80;49.50
3548;DHT22;1788;49.400;11.092;2023-04-08T01:16:56;8.90;49.80
3548;DHT22;1788;49.400;11.092;2023-04-08T01:21:50;8.80;50.10
3548;DHT22;1788;49.400;11.092;2023-04-08T01:24:19;8.80;49.70
3548;DHT22;1788;49.400;11.092;2023-04-08T01:26:44;8.80;50.00
3548;DHT22;1788;49.400;11.092;2023-04-08T01:29:11;8.80;49.80
3548;DHT22;1788;49.400;11.092;2023-04-08T01:31:37;8.80;49.80
3548;DHT22;1788;49.400;11.092;2023-04-08T01:34:04;8.80;49.90
3548;DHT22;1788;49.400;11.092;2023-04-08T01:36:30;8.80;49.90
3548;DHT22;1788;49.400;11.092;2023-04-08T01:38:58;8.80;50.00
3548;DHT22;1788;49.400;11.092;2023-04-08T01:41:24;8.80;50.00
3548;DHT22;1788;49.400;11.092;2023-04-08T01:43:50;8.80;50.10
3548;DHT22;1788;49.400;11.092;2023-04-08T01:46:17;8.80;50.10
3548;DHT22;1788;49.400;11.092;2023-04-08T01:48:43;8.80;50.10
3548;DHT22;1788;49.400;11.092;2023-04-08T01:51:11;8.80;50.20
3548;DHT22;1788;49.400;11.092;2023-04-08T01:53:37;8.80;50.20
3548;DHT22;1788;49.400;11.092;2023-04-08T01:56:06;8.80;50.30
3548;DHT22;1788;49.400;11.092;2023-04-08T01:58:35;8.80;50.30
3548;DHT22;1788;49.400;11.092;2023-04-08T02:00:59;8.80;50.40
3548;DHT22;1788;49.400;11.092;2023-04-08T02:03:25;8.80;50.30
3548;DHT22;1788;49.400;11.092;2023-04-08T02:05:53;8.80;50.40
3548;DHT22;1788;49.400;11.092;2023-04-08T02:08:19;8.80;50.40
3548;DHT22;1788;49.400;11.092;2023-04-08T02:10:48;8.80;51.00
3548;DHT22;1788;49.400;11.092;2023-04-08T02:13:14;8.80;50.50
3548;DHT22;1788;49.400;11.092;2023-04-08T02:15:41;8.80;50.50
3548;DHT22;1788;49.400;11.092;2023-04-08T02:18:10;8.80;50.50
3548;DHT22;1788;49.400;11.092;2023-04-08T02:23:05;8.80;50.60
3548;DHT22;1788;49.400;11.092;2023-04-08T02:25:28;8.80;50.60
3548;DHT22;1788;49.400;11.092;2023-04-08T02:27:54;8.80;50.60
3548;DHT22;1788;49.400;11.092;2023-04-08T02:30:21;8.80;50.70
3548;DHT22;1788;49.400;11.092;2023-04-08T02:32:47;8.80;50.70
3548;DHT22;1788;49.400;11.092;2023-04-08T02:35:14;8.80;50.70
3548;DHT22;1788;49.400;11.092;2023-04-08T02:37:40;8.80;50.70
3548;DHT22;1788;49.400;11.092;2023-04-08T02:42:34;8.90;50.90
3548;DHT22;1788;49.400;11.092;2023-04-08T02:45:00;8.80;50.80
3548;DHT22;1788;49.400;11.092;2023-04-08T02:47:27;8.90;50.90
3548;DHT22;1788;49.400;11.092;2023-04-08T02:49:54;8.90;51.00
3548;DHT22;1788;49.400;11.092;2023-04-08T02:52:21;8.90;51.00
3548;DHT22;1788;49.400;11.092;2023-04-08T02:54:47;9.00;51.10
3548;DHT22;1788;49.400;11.092;2023-04-08T02:57:14;9.00;51.00
3548;DHT22;1788;49.400;11.092;2023-04-08T02:59:41;9.00;51.00
3548;DHT22;1788;49.400;11.092;2023-04-08T03:02:07;9.00;51.00
3548;DHT22;1788;49.400;11.092;2023-04-08T03:04:34;9.10;51.10
3548;DHT22;1788;49.400;11.092;2023-04-08T03:07:01;9.10;51.00
3548;DHT22;1788;49.400;11.092;2023-04-08T03:09:27;9.10;50.90
3548;DHT22;1788;49.400;11.092;2023-04-08T03:11:54;9.20;50.90
3548;DHT22;1788;49.400;11.092;2023-04-08T03:14:20;9.20;50.80
3548;DHT22;1788;49.400;11.092;2023-04-08T03:16:47;9.30;50.80
3548;DHT22;1788;49.400;11.092;2023-04-08T03:19:14;9.30;50.70
3548;DHT22;1788;49.400;11.092;2023-04-08T03:21:40;9.30;50.60
3548;DHT22;1788;49.400;11.092;2023-04-08T03:24:07;9.30;50.50
3548;DHT22;1788;49.400;11.092;2023-04-08T03:26:33;9.40;50.60
3548;DHT22;1788;49.400;11.092;2023-04-08T03:29:00;9.40;50.50
3548;DHT22;1788;49.400;11.092;2023-04-08T03:31:27;9.40;50.40
3548;DHT22;1788;49.400;11.092;2023-04-08T03:33:53;9.50;50.40
3548;DHT22;1788;49.400;11.092;2023-04-08T03:36:20;9.50;50.40
3548;DHT22;1788;49.400;11.092;2023-04-08T03:38:46;9.50;50.30
3548;DHT22;1788;49.400;11.092;2023-04-08T03:41:13;9.50;50.20
3548;DHT22;1788;49.400;11.092;2023-04-08T03:43:40;9.50;50.20
3548;DHT22;1788;49.400;11.092;2023-04-08T03:46:06;9.50;50.10
3548;DHT22;1788;49.400;11.092;2023-04-08T03:48:33;9.50;50.70
3548;DHT22;1788;49.400;11.092;2023-04-08T03:51:00;9.50;50.00
3548;DHT22;1788;49.400;11.092;2023-04-08T03:53:26;9.50;50.00
3548;DHT22;1788;49.400;11.092;2023-04-08T03:55:54;9.40;50.40
3548;DHT22;1788;49.400;11.092;2023-04-08T03:58:20;9.40;49.80
3548;DHT22;1788;49.400;11.092;2023-04-08T04:00:47;9.40;49.70
3548;DHT22;1788;49.400;11.092;2023-04-08T04:03:13;9.40;49.70
3548;DHT22;1788;49.400;11.092;2023-04-08T04:05:40;9.40;49.60
3548;DHT22;1788;49.400;11.092;2023-04-08T04:08:07;9.40;49.60
3548;DHT22;1788;49.400;11.092;2023-04-08T04:10:33;9.40;49.60
3548;DHT22;1788;49.400;11.092;2023-04-08T04:13:00;9.30;49.50
3548;DHT22;1788;49.400;11.092;2023-04-08T04:15:26;9.30;49.40
3548;DHT22;1788;49.400;11.092;2023-04-08T04:17:54;9.20;49.90
3548;DHT22;1788;49.400;11.092;2023-04-08T04:20:20;9.20;49.40
3548;DHT22;1788;49.400;11.092;2023-04-08T04:22:48;9.20;49.40
3548;DHT22;1788;49.400;11.092;2023-04-08T04:25:14;9.10;49.30
3548;DHT22;1788;49.400;11.092;2023-04-08T04:27:41;9.10;49.40
3548;DHT22;1788;49.400;11.092;2023-04-08T04:30:08;9.20;49.40
3548;DHT22;1788;49.400;11.092;2023-04-08T04:32:34;9.10;49.40
3548;DHT22;1788;49.400;11.092;2023-04-08T04:35:01;9.10;49.40
3548;DHT22;1788;49.400;11.092;2023-04-08T04:37:27;9.20;49.40
3548;DHT22;1788;49.400;11.092;2023-04-08T04:39:54;9.20;49.40
3548;DHT22;1788;49.400;11.092;2023-04-08T04:42:21;9.20;49.40
3548;DHT22;1788;49.400;11.092;2023-04-08T04:44:47;9.20;49.30
3548;DHT22;1788;49.400;11.092;2023-04-08T04:47:14;9.20;49.30
3548;DHT22;1788;49.400;11.092;2023-04-08T04:49:41;9.20;49.30
3548;DHT22;1788;49.400;11.092;2023-04-08T04:52:07;9.20;49.30
3548;DHT22;1788;49.400;11.092;2023-04-08T04:54:35;9.20;49.00
3548;DHT22;1788;49.400;11.092;2023-04-08T04:57:01;9.20;49.30
3548;DHT22;1788;49.400;11.092;2023-04-08T04:59:28;9.20;49.20
3548;DHT22;1788;49.400;11.092;2023-04-08T05:01:54;9.30;49.20
3548;DHT22;1788;49.400;11.092;2023-04-08T05:04:21;9.30;49.20
3548;DHT22;1788;49.400;11.092;2023-04-08T05:06:48;9.30;49.10
3548;DHT22;1788;49.400;11.092;2023-04-08T05:09:14;9.30;49.10
3548;DHT22;1788;49.400;11.092;2023-04-08T05:11:41;9.40;49.10
3548;DHT22;1788;49.400;11.092;2023-04-08T05:14:07;9.40;49.00
3548;DHT22;1788;49.400;11.092;2023-04-08T05:16:35;9.40;49.00
3548;DHT22;1788;49.400;11.092;2023-04-08T05:19:01;9.40;48.90
3548;DHT22;1788;49.400;11.092;2023-04-08T05:21:28;9.40;48.80
3548;DHT22;1788;49.400;11.092;2023-04-08T05:23:54;9.40;48.80
3548;DHT22;1788;49.400;11.092;2023-04-08T05:26:22;9.40;48.30
3548;DHT22;1788;49.400;11.092;2023-04-08T05:28:49;9.40;48.70
3548;DHT22;1788;49.400;11.092;2023-04-08T05:31:16;9.40;48.50
3548;DHT22;1788;49.400;11.092;2023-04-08T05:33:42;9.40;48.70
3548;DHT22;1788;49.400;11.092;2023-04-08T05:36:10;9.40;48.70
3548;DHT22;1788;49.400;11.092;2023-04-08T05:38:36;9.40;48.70
3548;DHT22;1788;49.400;11.092;2023-04-08T05:41:02;9.30;48.60
3548;DHT22;1788;49.400;11.092;2023-04-08T05:43:29;9.30;48.70
3548;DHT22;1788;49.400;11.092;2023-04-08T05:45:56;9.30;48.70
3548;DHT22;1788;49.400;11.092;2023-04-08T05:48:22;9.20;48.80
3548;DHT22;1788;49.400;11.092;2023-04-08T05:50:50;9.20;49.10
3548;DHT22;1788;49.400;11.092;2023-04-08T05:53:16;9.20;49.10
3548;DHT22;1788;49.400;11.092;2023-04-08T05:55:43;9.20;49.20
3548;DHT22;1788;49.400;11.092;2023-04-08T05:58:09;9.20;49.30
3548;DHT22;1788;49.400;11.092;2023-04-08T06:00:36;9.20;49.40
3548;DHT22;1788;49.400;11.092;2023-04-08T06:03:03;9.10;49.50
3548;DHT22;1788;49.400;11.092;2023-04-08T06:05:30;9.10;49.70
3548;DHT22;1788;49.400;11.092;2023-04-08T06:07:56;9.00;49.80
3548;DHT22;1788;49.400;11.092;2023-04-08T06:10:22;9.10;50.30
3548;DHT22;1788;49.400;11.092;2023-04-08T06:12:49;9.20;50.70
3548;DHT22;1788;49.400;11.092;2023-04-08T06:15:16;9.20;50.70
3548;DHT22;1788;49.400;11.092;2023-04-08T06:17:42;9.20;50.70
3548;DHT22;1788;49.400;11.092;2023-04-08T06:20:10;9.20;51.00
3548;DHT22;1788;49.400;11.092;2023-04-08T06:22:36;9.20;51.00
3548;DHT22;1788;49.400;11.092;2023-04-08T06:25:03;9.10;51.10
3548;DHT22;1788;49.400;11.092;2023-04-08T06:27:30;9.10;51.20
3548;DHT22;1788;49.400;11.092;2023-04-08T06:29:56;9.10;51.50
3548;DHT22;1788;49.400;11.092;2023-04-08T06:32:23;9.10;52.20
3548;DHT22;1788;49.400;11.092;2023-04-08T06:34:50;9.00;51.70
3548;DHT22;1788;49.400;11.092;2023-04-08T06:37:17;9.00;51.90
3548;DHT22;1788;49.400;11.092;2023-04-08T06:39:44;9.00;52.10
3548;DHT22;1788;49.400;11.092;2023-04-08T06:42:11;8.90;52.20
3548;DHT22;1788;49.400;11.092;2023-04-08T06:44:37;8.90;52.40
3548;DHT22;1788;49.400;11.092;2023-04-08T06:47:04;8.80;52.50
3548;DHT22;1788;49.400;11.092;2023-04-08T06:49:31;8.70;52.60
3548;DHT22;1788;49.400;11.092;2023-04-08T06:51:57;8.70;52.90
3548;DHT22;1788;49.400;11.092;2023-04-08T06:54:24;8.70;53.10
3548;DHT22;1788;49.400;11.092;2023-04-08T06:56:51;8.70;53.30
3548;DHT22;1788;49.400;11.092;2023-04-08T06:59:17;8.70;53.50
3548;DHT22;1788;49.400;11.092;2023-04-08T07:01:44;8.70;53.80
3548;DHT22;1788;49.400;11.092;2023-04-08T07:04:12;8.70;53.80
3548;DHT22;1788;49.400;11.092;2023-04-08T07:06:39;8.70;53.90
3548;DHT22;1788;49.400;11.092;2023-04-08T07:09:06;8.60;53.90
3548;DHT22;1788;49.400;11.092;2023-04-08T07:11:33;8.60;54.10
3548;DHT22;1788;49.400;11.092;2023-04-08T07:14:00;8.60;54.20
3548;DHT22;1788;49.400;11.092;2023-04-08T07:16:27;8.60;54.50
3548;DHT22;1788;49.400;11.092;2023-04-08T07:18:54;8.60;54.40
3548;DHT22;1788;49.400;11.092;2023-04-08T07:21:20;8.60;54.60
3548;DHT22;1788;49.400;11.092;2023-04-08T07:23:47;8.50;54.60
3548;DHT22;1788;49.400;11.092;2023-04-08T07:26:13;8.40;54.60
3548;DHT22;1788;49.400;11.092;2023-04-08T07:28:40;8.40;54.80
3548;DHT22;1788;49.400;11.092;2023-04-08T07:33:34;8.30;55.10
3548;DHT22;1788;49.400;11.092;2023-04-08T07:36:01;8.30;55.20
3548;DHT22;1788;49.400;11.092;2023-04-08T07:38:27;8.30;55.30
3548;DHT22;1788;49.400;11.092;2023-04-08T07:40:54;8.30;55.40
3548;DHT22;1788;49.400;11.092;2023-04-08T07:43:20;8.30;55.50
3548;DHT22;1788;49.400;11.092;2023-04-08T07:45:47;8.30;55.60
3548;DHT22;1788;49.400;11.092;2023-04-08T07:48:14;8.30;55.60
3548;DHT22;1788;49.400;11.092;2023-04-08T07:50:41;8.30;55.70
3548;DHT22;1788;49.400;11.092;2023-04-08T07:53:08;8.30;55.90
3548;DHT22;1788;49.400;11.092;2023-04-08T07:55:35;8.30;55.80
3548;DHT22;1788;49.400;11.092;2023-04-08T07:58:02;8.30;56.00
3548;DHT22;1788;49.400;11.092;2023-04-08T08:00:28;8.30;56.00
3548;DHT22;1788;49.400;11.092;2023-04-08T08:02:55;8.30;56.10
3548;DHT22;1788;49.400;11.092;2023-04-08T08:05:22;8.30;56.90
3548;DHT22;1788;49.400;11.092;2023-04-08T08:07:49;8.30;56.30
3548;DHT22;1788;49.400;11.092;2023-04-08T08:10:15;8.30;56.30
3548;DHT22;1788;49.400;11.092;2023-04-08T08:12:42;8.30;56.30
3548;DHT22;1788;49.400;11.092;2023-04-08T08:15:09;8.30;56.40
3548;DHT22;1788;49.400;11.092;2023-04-08T08:17:35;8.40;56.40
3548;DHT22;1788;49.400;11.092;2023-04-08T08:20:02;8.40;56.50
3548;DHT22;1788;49.400;11.092;2023-04-08T08:22:28;8.40;56.50
3548;DHT22;1788;49.400;11.092;2023-04-08T08:24:56;8.40;56.60
3548;DHT22;1788;49.400;11.092;2023-04-08T08:27:23;8.30;56.50
3548;DHT22;1788;49.400;11.092;2023-04-08T08:29:49;8.40;56.70
3548;DHT22;1788;49.400;11.092;2023-04-08T08:32:16;8.40;56.70
3548;DHT22;1788;49.400;11.092;2023-04-08T08:34:42;8.40;56.80
3548;DHT22;1788;49.400;11.092;2023-04-08T08:37:09;8.40;56.80
3548;DHT22;1788;49.400;11.092;2023-04-08T08:39:36;8.40;56.90
3548;DHT22;1788;49.400;11.092;2023-04-08T08:42:02;8.40;56.90
3548;DHT22;1788;49.400;11.092;2023-04-08T08:44:30;8.40;57.00
3548;DHT22;1788;49.400;11.092;2023-04-08T08:46:56;8.40;57.00
3548;DHT22;1788;49.400;11.092;2023-04-08T08:49:23;8.40;57.00
3548;DHT22;1788;49.400;11.092;2023-04-08T08:51:49;8.40;57.10
3548;DHT22;1788;49.400;11.092;2023-04-08T08:54:16;8.40;57.20
3548;DHT22;1788;49.400;11.092;2023-04-08T08:56:43;8.50;57.30
3548;DHT22;1788;49.400;11.092;2023-04-08T08:59:09;8.50;57.30
3548;DHT22;1788;49.400;11.092;2023-04-08T09:01:37;8.50;57.30
3548;DHT22;1788;49.400;11.092;2023-04-08T09:06:29;8.50;57.40
3548;DHT22;1788;49.400;11.092;2023-04-08T09:08:56;8.50;57.40
3548;DHT22;1788;49.400;11.092;2023-04-08T09:11:22;8.50;57.50
3548;DHT22;1788;49.400;11.092;2023-04-08T09:13:50;8.70;58.20
3548;DHT22;1788;49.400;11.092;2023-04-08T09:16:17;8.70;58.10
3548;DHT22;1788;49.400;11.092;2023-04-08T09:18:43;8.90;58.00
3548;DHT22;1788;49.400;11.092;2023-04-08T09:21:10;9.00;57.90
3548;DHT22;1788;49.400;11.092;2023-04-08T09:23:37;9.10;57.80
3548;DHT22;1788;49.400;11.092;2023-04-08T09:28:29;9.20;57.70
3548;DHT22;1788;49.400;11.092;2023-04-08T09:30:56;9.30;57.70
3548;DHT22;1788;49.400;11.092;2023-04-08T09:33:28;9.30;57.50
3548;DHT22;1788;49.400;11.092;2023-04-08T09:35:49;9.40;57.50
3548;DHT22;1788;49.400;11.092;2023-04-08T09:38:16;9.40;57.60
3548;DHT22;1788;49.400;11.092;2023-04-08T09:40:42;9.40;57.50
3548;DHT22;1788;49.400;11.092;2023-04-08T09:43:10;9.50;57.90
3548;DHT22;1788;49.400;11.092;2023-04-08T09:45:36;9.40;57.60
3548;DHT22;1788;49.400;11.092;2023-04-08T09:48:07;9.50;57.70
3548;DHT22;1788;49.400;11.092;2023-04-08T09:55:23;9.50;57.50
3548;DHT22;1788;49.400;11.092;2023-04-08T10:00:16;9.40;57.50
3548;DHT22;1788;49.400;11.092;2023-04-08T10:05:09;9.50;57.70
3548;DHT22;1788;49.400;11.092;2023-04-08T10:07:36;9.50;57.70
3548;DHT22;1788;49.400;11.092;2023-04-08T10:10:03;9.50;57.70
3548;DHT22;1788;49.400;11.092;2023-04-08T10:12:29;9.40;57.70
3548;DHT22;1788;49.400;11.092;2023-04-08T10:17:23;9.50;57.80
3548;DHT22;1788;49.400;11.092;2023-04-08T10:19:49;9.50;57.70
3548;DHT22;1788;49.400;11.092;2023-04-08T10:24:58;9.60;57.80
3548;DHT22;1788;49.400;11.092;2023-04-08T10:27:23;9.60;57.80
3548;DHT22;1788;49.400;11.092;2023-04-08T10:29:35;9.70;57.90
3548;DHT22;1788;49.400;11.092;2023-04-08T10:32:02;9.70;57.80
3548;DHT22;1788;49.400;11.092;2023-04-08T10:34:29;9.80;57.80
3548;DHT22;1788;49.400;11.092;2023-04-08T10:36:55;9.90;57.80
3548;DHT22;1788;49.400;11.092;2023-04-08T10:39:23;9.90;57.70
3548;DHT22;1788;49.400;11.092;2023-04-08T10:41:49;10.00;56.90
3548;DHT22;1788;49.400;11.092;2023-04-08T10:46:43;10.10;56.80
3548;DHT22;1788;49.400;11.092;2023-04-08T10:49:09;10.10;56.70
3548;DHT22;1788;49.400;11.092;2023-04-08T10:51:36;10.20;56.80
3548;DHT22;1788;49.400;11.092;2023-04-08T10:56:29;10.30;56.70
3548;DHT22;1788;49.400;11.092;2023-04-08T10:58:56;10.30;56.60
3548;DHT22;1788;49.400;11.092;2023-04-08T11:01:22;10.40;56.60
3548;DHT22;1788;49.400;11.092;2023-04-08T11:03:50;10.40;56.50
3548;DHT22;1788;49.400;11.092;2023-04-08T11:06:16;10.30;56.40
3548;DHT22;1788;49.400;11.092;2023-04-08T11:08:44;10.30;56.50
3548;DHT22;1788;49.400;11.092;2023-04-08T11:11:10;10.30;57.00
3548;DHT22;1788;49.400;11.092;2023-04-08T11:13:39;10.40;56.50
3548;DHT22;1788;49.400;11.092;2023-04-08T11:16:05;10.40;56.50
3548;DHT22;1788;49.400;11.092;2023-04-08T11:18:31;10.40;56.40
3548;DHT22;1788;49.400;11.092;2023-04-08T11:20:57;10.40;56.50
3548;DHT22;1788;49.400;11.092;2023-04-08T11:23:24;10.40;56.40
3548;DHT22;1788;49.400;11.092;2023-04-08T11:25:51;10.40;56.40
3548;DHT22;1788;49.400;11.092;2023-04-08T11:28:17;10.40;56.40
3548;DHT22;1788;49.400;11.092;2023-04-08T11:30:44;10.40;56.40
3548;DHT22;1788;49.400;11.092;2023-04-08T11:33:11;10.40;56.40
3548;DHT22;1788;49.400;11.092;2023-04-08T11:38:04;10.40;56.50
3548;DHT22;1788;49.400;11.092;2023-04-08T11:40:30;10.50;56.50
3548;DHT22;1788;49.400;11.092;2023-04-08T11:42:57;10.60;56.50
3548;DHT22;1788;49.400;11.092;2023-04-08T11:45:24;10.60;56.40
3548;DHT22;1788;49.400;11.092;2023-04-08T11:47:51;10.50;56.30
3548;DHT22;1788;49.400;11.092;2023-04-08T11:52:45;10.60;56.30
3548;DHT22;1788;49.400;11.092;2023-04-08T11:55:11;10.60;56.20
3548;DHT22;1788;49.400;11.092;2023-04-08T11:57:37;10.60;56.20
3548;DHT22;1788;49.400;11.092;2023-04-08T12:00:05;10.60;56.10
3548;DHT22;1788;49.400;11.092;2023-04-08T12:02:31;10.60;56.10
3548;DHT22;1788;49.400;11.092;2023-04-08T12:04:57;10.50;56.10
3548;DHT22;1788;49.400;11.092;2023-04-08T12:07:24;10.60;56.10
3548;DHT22;1788;49.400;11.092;2023-04-08T12:09:50;10.60;56.10
3548;DHT22;1788;49.400;11.092;2023-04-08T12:12:17;10.60;56.10
3548;DHT22;1788;49.400;11.092;2023-04-08T12:14:44;10.60;56.10
3548;DHT22;1788;49.400;11.092;2023-04-08T12:17:10;10.60;56.10
3548;DHT22;1788;49.400;11.092;2023-04-08T12:19:37;10.60;56.10
3548;DHT22;1788;49.400;11.092;2023-04-08T12:22:04;10.50;56.10
3548;DHT22;1788;49.400;11.092;2023-04-08T12:24:30;10.50;56.10
3548;DHT22;1788;49.400;11.092;2023-04-08T12:26:57;10.60;56.20
3548;DHT22;1788;49.400;11.092;2023-04-08T12:29:23;10.50;56.10
3548;DHT22;1788;49.400;11.092;2023-04-08T12:31:50;10.60;56.20
3548;DHT22;1788;49.400;11.092;2023-04-08T12:34:17;10.60;56.20
3548;DHT22;1788;49.400;11.092;2023-04-08T12:36:43;10.60;56.20
3548;DHT22;1788;49.400;11.092;2023-04-08T12:39:11;10.60;56.20
3548;DHT22;1788;49.400;11.092;2023-04-08T12:41:37;10.60;56.10
3548;DHT22;1788;49.400;11.092;2023-04-08T12:44:04;10.60;56.20
3548;DHT22;1788;49.400;11.092;2023-04-08T12:46:31;10.60;56.20
3548;DHT22;1788;49.400;11.092;2023-04-08T12:48:57;10.70;56.20
3548;DHT22;1788;49.400;11.092;2023-04-08T12:51:24;10.70;56.20
3548;DHT22;1788;49.400;11.092;2023-04-08T12:53:51;10.70;56.20
3548;DHT22;1788;49.400;11.092;2023-04-08T12:56:17;10.60;56.10
3548;DHT22;1788;49.400;11.092;2023-04-08T12:58:44;10.60;56.10
3548;DHT22;1788;49.400;11.092;2023-04-08T13:01:10;10.60;56.20
3548;DHT22;1788;49.400;11.092;2023-04-08T13:03:37;10.60;56.20
3548;DHT22;1788;49.400;11.092;2023-04-08T13:06:04;10.70;56.30
3548;DHT22;1788;49.400;11.092;2023-04-08T13:08:30;10.70;56.30
3548;DHT22;1788;49.400;11.092;2023-04-08T13:10:57;10.70;56.40
3548;DHT22;1788;49.400;11.092;2023-04-08T13:13:23;10.80;56.50
3548;DHT22;1788;49.400;11.092;2023-04-08T13:15:50;10.80;56.50
3548;DHT22;1788;49.400;11.092;2023-04-08T13:18:17;10.90;56.60
3548;DHT22;1788;49.400;11.092;2023-04-08T13:20:43;11.00;56.70
3548;DHT22;1788;49.400;11.092;2023-04-08T13:23:10;11.10;56.70
3548;DHT22;1788;49.400;11.092;2023-04-08T13:25:38;11.20;56.60
3548;DHT22;1788;49.400;11.092;2023-04-08T13:28:05;11.20;56.60
3548;DHT22;1788;49.400;11.092;2023-04-08T13:30:31;11.20;56.50
3548;DHT22;1788;49.400;11.092;2023-04-08T13:32:58;11.30;56.50
3548;DHT22;1788;49.400;11.092;2023-04-08T13:35:24;11.30;56.40
3548;DHT22;1788;49.400;11.092;2023-04-08T13:37:51;11.30;56.40
3548;DHT22;1788;49.400;11.092;2023-04-08T13:40:18;11.30;56.40
3548;DHT22;1788;49.400;11.092;2023-04-08T13:42:44;11.50;57.10
3548;DHT22;1788;49.400;11.092;2023-04-08T13:45:11;11.80;57.70
3548;DHT22;1788;49.400;11.092;2023-04-08T13:47:37;12.10;57.70
3548;DHT22;1788;49.400;11.092;2023-04-08T13:52:31;12.30;57.00
3548;DHT22;1788;49.400;11.092;2023-04-08T13:54:57;12.30;56.70
3548;DHT22;1788;49.400;11.092;2023-04-08T13:57:24;12.30;56.40
3548;DHT22;1788;49.400;11.092;2023-04-08T13:59:51;12.20;56.20
3548;DHT22;1788;49.400;11.092;2023-04-08T14:02:17;12.10;56.00
3548;DHT22;1788;49.400;11.092;2023-04-08T14:04:44;11.90;55.90
3548;DHT22;1788;49.400;11.092;2023-04-08T14:07:11;11.80;56.00
3548;DHT22;1788;49.400;11.092;2023-04-08T14:09:37;11.80;56.10
3548;DHT22;1788;49.400;11.092;2023-04-08T14:12:04;11.70;56.40
3548;DHT22;1788;49.400;11.092;2023-04-08T14:14:31;11.70;56.40
3548;DHT22;1788;49.400;11.092;2023-04-08T14:16:59;11.80;56.50
3548;DHT22;1788;49.400;11.092;2023-04-08T14:19:25;11.80;56.50
3548;DHT22;1788;49.400;11.092;2023-04-08T14:21:52;12.00;56.50
3548;DHT22;1788;49.400;11.092;2023-04-08T14:24:19;12.00;56.40
3548;DHT22;1788;49.400;11.092;2023-04-08T14:26:47;12.30;56.60
3548;DHT22;1788;49.400;11.092;2023-04-08T14:29:14;12.30;56.60
3548;DHT22;1788;49.400;11.092;2023-04-08T14:31:41;12.60;56.50
3548;DHT22;1788;49.400;11.092;2023-04-08T14:34:08;12.50;56.10
3548;DHT22;1788;49.400;11.092;2023-04-08T14:36:34;12.60;55.90
3548;DHT22;1788;49.400;11.092;2023-04-08T14:39:01;12.60;55.70
3548;DHT22;1788;49.400;11.092;2023-04-08T14:41:28;12.60;55.60
3548;DHT22;1788;49.400;11.092;2023-04-08T14:43:54;12.60;55.60
3548;DHT22;1788;49.400;11.092;2023-04-08T14:46:21;12.60;55.50
3548;DHT22;1788;49.400;11.092;2023-04-08T14:48:48;12.70;55.60
3548;DHT22;1788;49.400;11.092;2023-04-08T14:51:15;12.80;55.20
3548;DHT22;1788;49.400;11.092;2023-04-08T14:53:42;12.80;55.20
3548;DHT22;1788;49.400;11.092;2023-04-08T14:56:08;12.80;55.00
3548;DHT22;1788;49.400;11.092;2023-04-08T14:58:35;12.80;54.80
3548;DHT22;1788;49.400;11.092;2023-04-08T15:01:02;12.80;54.80
3548;DHT22;1788;49.400;11.092;2023-04-08T15:03:30;12.90;54.70
3548;DHT22;1788;49.400;11.092;2023-04-08T15:05:56;12.80;54.50
3548;DHT22;1788;49.400;11.092;2023-04-08T15:08:23;12.80;54.40
3548;DHT22;1788;49.400;11.092;2023-04-08T15:10:51;12.80;54.30
3548;DHT22;1788;49.400;11.092;2023-04-08T15:13:18;12.70;54.20
3548;DHT22;1788;49.400;11.092;2023-04-08T15:15:45;12.70;54.20
3548;DHT22;1788;49.400;11.092;2023-04-08T15:18:11;12.60;54.10
3548;DHT22;1788;49.400;11.092;2023-04-08T15:20:39;12.60;54.10
3548;DHT22;1788;49.400;11.092;2023-04-08T15:23:05;12.60;54.10
3548;DHT22;1788;49.400;11.092;2023-04-08T15:25:32;12.50;54.00
3548;DHT22;1788;49.400;11.092;2023-04-08T15:27:59;12.50;54.00
3548;DHT22;1788;49.400;11.092;2023-04-08T15:30:25;12.50;54.60
3548;DHT22;1788;49.400;11.092;2023-04-08T15:32:53;12.40;54.10
3548;DHT22;1788;49.400;11.092;2023-04-08T15:35:19;12.40;54.10
3548;DHT22;1788;49.400;11.092;2023-04-08T15:37:47;12.50;54.50
3548;DHT22;1788;49.400;11.092;2023-04-08T15:40:13;12.40;54.30
3548;DHT22;1788;49.400;11.092;2023-04-08T15:42:41;12.40;54.20
3548;DHT22;1788;49.400;11.092;2023-04-08T15:45:07;12.40;54.10
3548;DHT22;1788;49.400;11.092;2023-04-08T15:47:34;12.40;54.10
3548;DHT22;1788;49.400;11.092;2023-04-08T15:50:00;12.30;54.10
3548;DHT22;1788;49.400;11.092;2023-04-08T15:52:27;12.30;54.10
3548;DHT22;1788;49.400;11.092;2023-04-08T15:54:54;12.20;54.30
3548;DHT22;1788;49.400;11.092;2023-04-08T15:57:21;12.10;54.20
3548;DHT22;1788;49.400;11.092;2023-04-08T15:59:48;12.10;54.40
3548;DHT22;1788;49.400;11.092;2023-04-08T16:02:15;12.10;54.30
3548;DHT22;1788;49.400;11.092;2023-04-08T16:04:42;12.10;54.30
3548;DHT22;1788;49.400;11.092;2023-04-08T16:07:08;12.10;54.40
3548;DHT22;1788;49.400;11.092;2023-04-08T16:09:35;12.10;54.40
3548;DHT22;1788;49.400;11.092;2023-04-08T16:12:02;12.10;54.30
3548;DHT22;1788;49.400;11.092;2023-04-08T16:14:29;12.10;54.30
3548;DHT22;1788;49.400;11.092;2023-04-08T16:16:56;12.00;54.30
3548;DHT22;1788;49.400;11.092;2023-04-08T16:19:23;12.00;54.30
3548;DHT22;1788;49.400;11.092;2023-04-08T16:21:50;12.00;54.30
3548;DHT22;1788;49.400;11.092;2023-04-08T16:24:16;12.00;54.40
3548;DHT22;1788;49.400;11.092;2023-04-08T16:26:43;12.00;54.40
3548;DHT22;1788;49.400;11.092;2023-04-08T16:29:10;12.00;54.50
3548;DHT22;1788;49.400;11.092;2023-04-08T16:31:37;12.00;54.40
3548;DHT22;1788;49.400;11.092;2023-04-08T16:34:04;12.10;54.50
3548;DHT22;1788;49.400;11.092;2023-04-08T16:36:31;12.10;54.50